Tropical Cyclones
[Index]
Main Index Home Page Stock Weather Photos Extreme Storms Discussion Storm News and Storm Chasing Reports Tropical Cyclones / Hurricanes / Typhoons Weather Data and Links Wild Fires / Bushfires Weather Observation Techniques Weather Picture Catalogue Tornado Pictures and Reports Stock Video Footage and DVDs for sale
Season 1973-1974 Tropical Cyclone JENNY Track Map
Season 1973-1974 Summaries: [BoM-AU] [JTWC-AU] [JTWC-SIO] [JTWC-SPAC] [JTWC-SH]
<<- Previous TC | BoM 1973-1974 Season | Next TC ->>

click for intensity scale information  Lat/long Grid: Show Hide

 Date Labels: Show Hide

Bureau of Meteorology Tropical Cyclone Data

Name: JENNY
Number: 528 / 197374_18

17 Mar 1974 00:00 UTC to 31 Mar 1974 01:00 UTC

    date/time    lat    long    hPa   cat  kts
1974-03-17 00   13.0   137.9                            
1974-03-17 03   12.9   137.6                            
1974-03-17 06   12.8   137.2    995    1                
1974-03-17 08   12.7   137.0    995    1                
1974-03-17 09   12.7   136.9    995    1                
1974-03-17 10   12.7   136.8    995    1                
1974-03-17 12   12.7   136.6    995    1                
1974-03-17 23   12.8   135.4                            
1974-03-19 21   13.5   129.4                            
1974-03-20 00   13.3   129.0    995    1                
1974-03-20 03   13.3   128.9    995    1                
1974-03-20 06   13.2   128.8    995    1                
1974-03-20 09   13.2   128.7    995    1                
1974-03-20 12   13.1   128.5    995    1                
1974-03-20 15   13.1   128.7    995    1                
1974-03-20 18   13.1   128.3    995    1                
1974-03-20 21   13.0   128.2    995    1                
1974-03-21 00   13.0   128.0    995    1                
1974-03-21 03   13.0   127.9    995    1                
1974-03-21 06   12.9   127.8    995    1                
1974-03-21 09   12.9   127.7    995    1                
1974-03-21 12   12.9   127.6    995    1                
1974-03-21 15   12.9   127.4    995    1                
1974-03-21 18   12.8   127.3    995    1                
1974-03-21 21   12.8   127.2    995    1                
1974-03-22 00   12.8   127.0                            
1974-03-22 03   12.8   126.9                            
1974-03-22 06   12.8   126.8                            
1974-03-22 09   12.7   126.7                            
1974-03-22 12   12.7   126.6                            
1974-03-22 15   12.7   126.4                            
1974-03-22 18   12.7   126.3                            
1974-03-22 21   12.6   126.2                            
1974-03-23 00   12.6   126.0                            
1974-03-23 13   12.6   124.8   1004                     
1974-03-24 01   12.6   123.7   1007                     
1974-03-24 04   13.0   123.0   1007                     
1974-03-24 07   12.6   122.1   1006                     
1974-03-24 10   13.9   121.2   1005                     
1974-03-24 13   13.8   120.3   1005                     
1974-03-24 16   13.7   119.4   1005                     
1974-03-24 19   13.5   118.4   1004                     
1974-03-24 22   13.4   117.4   1004                     
1974-03-25 01   13.3   116.6   1003                     
1974-03-25 04   13.3   115.7   1003                     
1974-03-25 07   13.4   114.9   1002                     
1974-03-25 10   13.6   114.3   1002                     
1974-03-25 13   13.9   113.6   1002                     
1974-03-25 16   14.4   112.9   1001                     
1974-03-25 19   14.7   112.2   1000                     
1974-03-25 22   15.0   111.5   1000                     
1974-03-26 01   15.5   110.5    999                     
1974-03-26 04   15.6   110.1    999                     
1974-03-26 07   15.9   109.6    999                     
1974-03-26 10   16.1   109.1    999                     
1974-03-26 13   16.3   108.5    999                     
1974-03-26 16   16.4   108.1    999                     
1974-03-26 19   16.6   107.5    999                     
1974-03-26 22   16.6   106.9    999                     
1974-03-27 01   17.0   106.4    999                     
1974-03-27 04   17.1   106.3    999                     
1974-03-27 07   17.4   106.1    997                     
1974-03-27 10   17.6   106.0    996                     
1974-03-27 13   17.8   106.0    995    1                
1974-03-27 16   18.1   106.0    992    1                
1974-03-27 19   18.4   106.0    990    1                
1974-03-27 22   18.6   106.1    989    1                
1974-03-28 01   18.7   106.2    988    1                
1974-03-28 04   19.0   106.3    991    1                
1974-03-28 07   19.3   106.4    991    1                
1974-03-28 10   19.5   106.5    994    1                
1974-03-28 13   19.6   106.6    999                     
1974-03-28 16   19.9   106.7   1002                     
1974-03-28 19   20.1   106.9   1001                     
1974-03-28 20   20.3   107.0   1002                     
1974-03-29 01   20.5   107.3   1003                     
1974-03-29 04   20.6   107.4   1004                     
1974-03-29 07   20.7   107.5   1002                     
1974-03-29 10   20.8   107.6   1003                     
1974-03-29 13   20.9   107.6   1005                     
1974-03-29 16   21.0   107.8   1006                     
1974-03-29 19   21.1   107.9   1005                     
1974-03-29 22   21.3   108.0   1005                     
1974-03-30 01   21.4   108.1   1006                     
1974-03-30 04   21.6   108.2   1006                     
1974-03-30 07   21.7   108.3   1005                     
1974-03-30 10   21.8   108.4   1006                     
1974-03-30 13   22.0   108.5   1005                     
1974-03-30 16   22.1   108.6   1009                     
1974-03-30 19   22.3   108.8   1009                     
1974-03-30 22   22.5   109.0   1010                     
1974-03-31 01   22.6   109.1   1010                     
Winds are 10-min average.

Tropical cyclone tracks developed by Michael Bath using data from the Bureau of Meteorology and Google Maps.


[Australian Severe Weather index] [Copyright Notice] [Email Contacts] [Search This Site] [Privacy Policy]
Document: tropical_cyclone_jenny.htm Updated: 30 May 2013